sensor_id;sensor_type;location;lat;lon;timestamp;pressure;altitude;pressure_sealevel;temperature;humidity
69239;BME280;56349;51.816;-0.026;2023-06-10T00:01:15;100820.23;;;29.71;28.55
69239;BME280;56349;51.816;-0.026;2023-06-10T00:03:41;100818.16;;;29.46;28.76
69239;BME280;56349;51.816;-0.026;2023-06-10T00:06:07;100819.26;;;29.21;28.98
69239;BME280;56349;51.816;-0.026;2023-06-10T00:08:33;100825.38;;;28.99;29.17
69239;BME280;56349;51.816;-0.026;2023-06-10T00:10:59;100827.08;;;28.77;29.41
69239;BME280;56349;51.816;-0.026;2023-06-10T00:13:25;100830.67;;;29.02;29.59
69239;BME280;56349;51.816;-0.026;2023-06-10T00:15:51;100827.52;;;28.81;29.79
69239;BME280;56349;51.816;-0.026;2023-06-10T00:18:17;100826.37;;;28.62;30.00
69239;BME280;56349;51.816;-0.026;2023-06-10T00:20:43;100823.21;;;28.69;30.18
69239;BME280;56349;51.816;-0.026;2023-06-10T00:23:09;100819.96;;;28.24;30.38
69239;BME280;56349;51.816;-0.026;2023-06-10T00:25:34;100817.09;;;28.08;30.54
69239;BME280;56349;51.816;-0.026;2023-06-10T00:28:00;100816.85;;;28.18;30.72
69239;BME280;56349;51.816;-0.026;2023-06-10T00:30:26;100816.85;;;28.00;30.91
69239;BME280;56349;51.816;-0.026;2023-06-10T00:32:52;100811.63;;;28.08;31.10
69239;BME280;56349;51.816;-0.026;2023-06-10T00:35:18;100810.08;;;27.72;31.26
69239;BME280;56349;51.816;-0.026;2023-06-10T00:37:45;100807.08;;;27.81;31.40
69239;BME280;56349;51.816;-0.026;2023-06-10T00:40:11;100804.42;;;27.68;31.55
69239;BME280;56349;51.816;-0.026;2023-06-10T00:42:36;100807.12;;;27.58;31.67
69239;BME280;56349;51.816;-0.026;2023-06-10T00:45:02;100812.58;;;27.45;31.81
69239;BME280;56349;51.816;-0.026;2023-06-10T00:47:28;100810.66;;;27.31;31.96
69239;BME280;56349;51.816;-0.026;2023-06-10T00:49:54;100810.46;;;27.19;32.12
69239;BME280;56349;51.816;-0.026;2023-06-10T00:52:19;100808.12;;;27.35;32.24
69239;BME280;56349;51.816;-0.026;2023-06-10T00:54:45;100808.86;;;27.00;32.35
69239;BME280;56349;51.816;-0.026;2023-06-10T00:57:12;100805.74;;;27.19;32.43
69239;BME280;56349;51.816;-0.026;2023-06-10T00:59:38;100804.31;;;26.83;32.54
69239;BME280;56349;51.816;-0.026;2023-06-10T01:02:04;100801.06;;;26.73;32.66
69239;BME280;56349;51.816;-0.026;2023-06-10T01:04:28;100801.40;;;26.90;32.75
69239;BME280;56349;51.816;-0.026;2023-06-10T01:06:57;100805.53;;;26.80;32.88
69239;BME280;56349;51.816;-0.026;2023-06-10T01:09:25;100804.32;;;26.72;32.98
69239;BME280;56349;51.816;-0.026;2023-06-10T01:11:49;100806.36;;;26.65;33.04
69239;BME280;56349;51.816;-0.026;2023-06-10T01:14:12;100802.29;;;26.82;33.11
69239;BME280;56349;51.816;-0.026;2023-06-10T01:16:37;100800.45;;;26.54;33.16
69239;BME280;56349;51.816;-0.026;2023-06-10T01:19:02;100796.47;;;26.71;33.22
69239;BME280;56349;51.816;-0.026;2023-06-10T01:21:28;100791.85;;;26.66;33.29
69239;BME280;56349;51.816;-0.026;2023-06-10T01:23:55;100787.65;;;26.58;33.36
69239;BME280;56349;51.816;-0.026;2023-06-10T01:26:23;100786.07;;;26.52;33.42
69239;BME280;56349;51.816;-0.026;2023-06-10T01:28:49;100782.78;;;26.44;33.51
69239;BME280;56349;51.816;-0.026;2023-06-10T01:31:16;100785.79;;;26.38;33.57
69239;BME280;56349;51.816;-0.026;2023-06-10T01:33:41;100784.83;;;26.35;33.65
69239;BME280;56349;51.816;-0.026;2023-06-10T01:36:04;100786.04;;;26.32;33.68
69239;BME280;56349;51.816;-0.026;2023-06-10T01:38:32;100788.49;;;26.50;33.71
69239;BME280;56349;51.816;-0.026;2023-06-10T01:40:56;100786.23;;;26.25;33.76
69239;BME280;56349;51.816;-0.026;2023-06-10T01:43:20;100778.82;;;26.20;33.81
69239;BME280;56349;51.816;-0.026;2023-06-10T01:45:44;100781.56;;;26.16;33.87
69239;BME280;56349;51.816;-0.026;2023-06-10T01:48:10;100776.44;;;26.33;33.92
69239;BME280;56349;51.816;-0.026;2023-06-10T01:50:36;100778.36;;;26.08;33.96
69239;BME280;56349;51.816;-0.026;2023-06-10T01:53:02;100776.07;;;26.03;34.00
69239;BME280;56349;51.816;-0.026;2023-06-10T01:55:27;100771.38;;;25.97;34.05
69239;BME280;56349;51.816;-0.026;2023-06-10T01:57:53;100772.33;;;26.16;34.11
69239;BME280;56349;51.816;-0.026;2023-06-10T02:00:19;100776.51;;;26.12;34.14
69239;BME280;56349;51.816;-0.026;2023-06-10T02:02:45;100776.24;;;26.09;34.18
69239;BME280;56349;51.816;-0.026;2023-06-10T02:05:10;100776.35;;;26.04;34.24
69239;BME280;56349;51.816;-0.026;2023-06-10T02:07:36;100775.07;;;25.99;34.29
69239;BME280;56349;51.816;-0.026;2023-06-10T02:10:02;100775.47;;;26.23;34.34
69239;BME280;56349;51.816;-0.026;2023-06-10T02:12:28;100773.75;;;25.93;34.37
69239;BME280;56349;51.816;-0.026;2023-06-10T02:14:53;100773.28;;;25.89;34.41
69239;BME280;56349;51.816;-0.026;2023-06-10T02:17:19;100768.27;;;25.85;34.46
69239;BME280;56349;51.816;-0.026;2023-06-10T02:19:45;100768.47;;;25.82;34.48
69239;BME280;56349;51.816;-0.026;2023-06-10T02:22:10;100770.19;;;25.79;34.52
69239;BME280;56349;51.816;-0.026;2023-06-10T02:24:36;100770.07;;;26.03;34.53
69239;BME280;56349;51.816;-0.026;2023-06-10T02:27:02;100773.22;;;26.03;34.55
69239;BME280;56349;51.816;-0.026;2023-06-10T02:29:28;100774.55;;;25.98;34.57
69239;BME280;56349;51.816;-0.026;2023-06-10T02:31:54;100771.92;;;25.68;34.61
69239;BME280;56349;51.816;-0.026;2023-06-10T02:34:19;100768.57;;;25.65;34.64
69239;BME280;56349;51.816;-0.026;2023-06-10T02:36:45;100769.03;;;25.90;34.66
69239;BME280;56349;51.816;-0.026;2023-06-10T02:39:11;100766.47;;;25.89;34.67
69239;BME280;56349;51.816;-0.026;2023-06-10T02:41:37;100766.14;;;25.89;34.68
69239;BME280;56349;51.816;-0.026;2023-06-10T02:44:03;100766.01;;;25.86;34.69
69239;BME280;56349;51.816;-0.026;2023-06-10T02:46:29;100763.00;;;25.55;34.73
69239;BME280;56349;51.816;-0.026;2023-06-10T02:48:54;100758.96;;;25.51;34.77
69239;BME280;56349;51.816;-0.026;2023-06-10T02:51:20;100759.31;;;25.75;34.80
69239;BME280;56349;51.816;-0.026;2023-06-10T02:53:46;100765.66;;;25.46;34.82
69239;BME280;56349;51.816;-0.026;2023-06-10T02:56:13;100762.69;;;25.71;34.86
69239;BME280;56349;51.816;-0.026;2023-06-10T02:58:38;100770.47;;;25.69;34.87
69239;BME280;56349;51.816;-0.026;2023-06-10T03:01:03;100766.74;;;25.66;34.90
69239;BME280;56349;51.816;-0.026;2023-06-10T03:03:29;100761.75;;;25.63;34.93
69239;BME280;56349;51.816;-0.026;2023-06-10T03:05:55;100763.19;;;25.60;34.96
69239;BME280;56349;51.816;-0.026;2023-06-10T03:08:21;100758.58;;;25.57;34.98
69239;BME280;56349;51.816;-0.026;2023-06-10T03:10:47;100757.24;;;25.30;35.01
69239;BME280;56349;51.816;-0.026;2023-06-10T03:13:13;100753.75;;;25.27;35.01
69239;BME280;56349;51.816;-0.026;2023-06-10T03:15:39;100755.79;;;25.53;35.01
69239;BME280;56349;51.816;-0.026;2023-06-10T03:18:05;100757.81;;;25.51;35.03
69239;BME280;56349;51.816;-0.026;2023-06-10T03:20:30;100759.50;;;25.50;35.04
69239;BME280;56349;51.816;-0.026;2023-06-10T03:22:56;100755.77;;;25.48;35.06
69239;BME280;56349;51.816;-0.026;2023-06-10T03:25:22;100756.62;;;25.45;35.09
69239;BME280;56349;51.816;-0.026;2023-06-10T03:27:48;100754.62;;;25.41;35.13
69239;BME280;56349;51.816;-0.026;2023-06-10T03:30:14;100756.36;;;25.83;35.20
69239;BME280;56349;51.816;-0.026;2023-06-10T03:32:38;100754.56;;;25.40;35.26
69239;BME280;56349;51.816;-0.026;2023-06-10T03:35:05;100755.46;;;25.44;35.36
69239;BME280;56349;51.816;-0.026;2023-06-10T03:37:30;100755.01;;;25.51;35.41
69239;BME280;56349;51.816;-0.026;2023-06-10T03:39:56;100755.42;;;25.62;35.40
69239;BME280;56349;51.816;-0.026;2023-06-10T03:42:22;100752.52;;;25.49;35.30
69239;BME280;56349;51.816;-0.026;2023-06-10T03:44:47;100753.21;;;25.68;35.16
69239;BME280;56349;51.816;-0.026;2023-06-10T03:47:13;100756.27;;;26.16;34.93
69239;BME280;56349;51.816;-0.026;2023-06-10T03:49:39;100755.65;;;25.89;34.65
69239;BME280;56349;51.816;-0.026;2023-06-10T03:52:05;100753.53;;;26.10;34.38
69239;BME280;56349;51.816;-0.026;2023-06-10T03:54:30;100751.46;;;26.47;34.13
69239;BME280;56349;51.816;-0.026;2023-06-10T03:56:55;100749.00;;;26.38;33.92
69239;BME280;56349;51.816;-0.026;2023-06-10T03:59:21;100750.84;;;26.48;33.72
69239;BME280;56349;51.816;-0.026;2023-06-10T04:01:47;100746.40;;;26.55;33.57
69239;BME280;56349;51.816;-0.026;2023-06-10T04:04:14;100745.08;;;26.58;33.46
69239;BME280;56349;51.816;-0.026;2023-06-10T04:06:38;100747.79;;;26.37;33.37
69239;BME280;56349;51.816;-0.026;2023-06-10T04:09:03;100749.31;;;26.57;33.31
69239;BME280;56349;51.816;-0.026;2023-06-10T04:11:29;100749.50;;;26.54;33.27
69239;BME280;56349;51.816;-0.026;2023-06-10T04:13:55;100752.79;;;26.49;33.27
69239;BME280;56349;51.816;-0.026;2023-06-10T04:16:21;100754.09;;;26.42;33.28
69239;BME280;56349;51.816;-0.026;2023-06-10T04:18:46;100759.37;;;26.14;33.30
69239;BME280;56349;51.816;-0.026;2023-06-10T04:21:12;100758.04;;;26.30;33.30
69239;BME280;56349;51.816;-0.026;2023-06-10T04:23:38;100756.24;;;26.46;33.34
69239;BME280;56349;51.816;-0.026;2023-06-10T04:26:04;100755.58;;;26.65;33.39
69239;BME280;56349;51.816;-0.026;2023-06-10T04:28:30;100757.13;;;26.32;33.43
69239;BME280;56349;51.816;-0.026;2023-06-10T04:30:56;100756.06;;;26.03;33.47
69239;BME280;56349;51.816;-0.026;2023-06-10T04:33:22;100756.26;;;26.18;33.53
69239;BME280;56349;51.816;-0.026;2023-06-10T04:35:47;100759.47;;;25.90;33.56
69239;BME280;56349;51.816;-0.026;2023-06-10T04:38:13;100761.55;;;26.33;33.63
69239;BME280;56349;51.816;-0.026;2023-06-10T04:40:39;100763.15;;;26.02;33.65
69239;BME280;56349;51.816;-0.026;2023-06-10T04:43:05;100760.38;;;26.22;33.71
69239;BME280;56349;51.816;-0.026;2023-06-10T04:45:31;100763.79;;;25.89;33.76
69239;BME280;56349;51.816;-0.026;2023-06-10T04:47:56;100765.27;;;26.09;33.82
69239;BME280;56349;51.816;-0.026;2023-06-10T04:50:22;100763.66;;;26.04;33.86
69239;BME280;56349;51.816;-0.026;2023-06-10T04:52:48;100760.35;;;25.98;33.92
69239;BME280;56349;51.816;-0.026;2023-06-10T04:55:14;100758.85;;;25.92;33.97
69239;BME280;56349;51.816;-0.026;2023-06-10T04:57:40;100757.23;;;25.59;34.03
69239;BME280;56349;51.816;-0.026;2023-06-10T05:00:06;100757.18;;;25.54;34.10
69239;BME280;56349;51.816;-0.026;2023-06-10T05:02:31;100757.33;;;25.78;34.11
69239;BME280;56349;51.816;-0.026;2023-06-10T05:04:57;100752.12;;;25.48;34.15
69239;BME280;56349;51.816;-0.026;2023-06-10T05:07:23;100751.07;;;25.42;34.19
69239;BME280;56349;51.816;-0.026;2023-06-10T05:09:49;100748.98;;;25.63;34.24
69239;BME280;56349;51.816;-0.026;2023-06-10T05:12:15;100747.08;;;25.57;34.30
69239;BME280;56349;51.816;-0.026;2023-06-10T05:14:40;100749.13;;;25.51;34.35
69239;BME280;56349;51.816;-0.026;2023-06-10T05:17:06;100750.53;;;25.46;34.41
69239;BME280;56349;51.816;-0.026;2023-06-10T05:19:32;100748.55;;;25.42;34.45
69239;BME280;56349;51.816;-0.026;2023-06-10T05:21:58;100749.11;;;25.61;34.48
69239;BME280;56349;51.816;-0.026;2023-06-10T05:24:23;100749.52;;;25.36;34.52
69239;BME280;56349;51.816;-0.026;2023-06-10T05:26:49;100750.59;;;25.34;34.54
69239;BME280;56349;51.816;-0.026;2023-06-10T05:29:15;100749.07;;;25.31;34.55
69239;BME280;56349;51.816;-0.026;2023-06-10T05:31:41;100747.25;;;25.29;34.57
69239;BME280;56349;51.816;-0.026;2023-06-10T05:34:07;100752.28;;;25.27;34.58
69239;BME280;56349;51.816;-0.026;2023-06-10T05:36:32;100753.79;;;25.25;34.58
69239;BME280;56349;51.816;-0.026;2023-06-10T05:38:58;100755.89;;;25.22;34.66
69239;BME280;56349;51.816;-0.026;2023-06-10T05:41:24;100756.16;;;25.64;34.64
69239;BME280;56349;51.816;-0.026;2023-06-10T05:43:50;100754.99;;;25.19;34.63
69239;BME280;56349;51.816;-0.026;2023-06-10T05:46:16;100752.88;;;25.17;34.65
69239;BME280;56349;51.816;-0.026;2023-06-10T05:48:42;100751.66;;;25.15;34.65
69239;BME280;56349;51.816;-0.026;2023-06-10T05:51:08;100752.44;;;25.12;34.68
69239;BME280;56349;51.816;-0.026;2023-06-10T05:53:33;100751.47;;;25.09;34.70
69239;BME280;56349;51.816;-0.026;2023-06-10T05:55:59;100747.95;;;25.08;34.69
69239;BME280;56349;51.816;-0.026;2023-06-10T05:58:24;100756.55;;;25.10;34.68
69239;BME280;56349;51.816;-0.026;2023-06-10T06:00:50;100762.17;;;25.08;34.69
69239;BME280;56349;51.816;-0.026;2023-06-10T06:03:17;100763.92;;;25.26;34.73
69239;BME280;56349;51.816;-0.026;2023-06-10T06:05:42;100768.83;;;25.00;34.76
69239;BME280;56349;51.816;-0.026;2023-06-10T06:08:09;100768.76;;;24.96;34.79
69239;BME280;56349;51.816;-0.026;2023-06-10T06:10:34;100770.65;;;25.18;34.84
69239;BME280;56349;51.816;-0.026;2023-06-10T06:12:59;100774.84;;;24.95;34.90
69239;BME280;56349;51.816;-0.026;2023-06-10T06:15:24;100774.56;;;24.95;34.88
69239;BME280;56349;51.816;-0.026;2023-06-10T06:17:50;100771.63;;;24.96;34.86
69239;BME280;56349;51.816;-0.026;2023-06-10T06:20:15;100771.87;;;24.96;34.86
69239;BME280;56349;51.816;-0.026;2023-06-10T06:22:41;100769.41;;;24.97;35.27
69239;BME280;56349;51.816;-0.026;2023-06-10T06:25:07;100764.71;;;24.97;35.43
69239;BME280;56349;51.816;-0.026;2023-06-10T06:27:33;100759.62;;;25.19;35.56
69239;BME280;56349;51.816;-0.026;2023-06-10T06:29:59;100755.67;;;25.44;35.95
69239;BME280;56349;51.816;-0.026;2023-06-10T06:32:25;100752.59;;;25.01;35.75
69239;BME280;56349;51.816;-0.026;2023-06-10T06:34:50;100755.59;;;25.26;35.84
69239;BME280;56349;51.816;-0.026;2023-06-10T06:37:16;100756.34;;;25.07;35.80
69239;BME280;56349;51.816;-0.026;2023-06-10T06:39:41;100760.71;;;25.31;35.81
69239;BME280;56349;51.816;-0.026;2023-06-10T06:42:07;100759.40;;;25.09;35.91
69239;BME280;56349;51.816;-0.026;2023-06-10T06:44:33;100755.02;;;25.10;35.70
69239;BME280;56349;51.816;-0.026;2023-06-10T06:46:59;100755.05;;;25.10;35.66
69239;BME280;56349;51.816;-0.026;2023-06-10T06:49:24;100759.45;;;25.11;35.62
69239;BME280;56349;51.816;-0.026;2023-06-10T06:51:51;100756.41;;;25.11;35.59
69239;BME280;56349;51.816;-0.026;2023-06-10T06:54:17;100754.65;;;25.12;35.52
69239;BME280;56349;51.816;-0.026;2023-06-10T06:56:47;100755.25;;;24.86;35.50
69239;BME280;56349;51.816;-0.026;2023-06-10T06:59:08;100754.50;;;25.34;35.45
69239;BME280;56349;51.816;-0.026;2023-06-10T07:01:34;100756.74;;;25.12;35.57
69239;BME280;56349;51.816;-0.026;2023-06-10T07:04:00;100756.49;;;25.54;35.52
69239;BME280;56349;51.816;-0.026;2023-06-10T07:06:25;100751.25;;;25.07;35.56
69239;BME280;56349;51.816;-0.026;2023-06-10T07:08:51;100753.60;;;25.08;35.66
69239;BME280;56349;51.816;-0.026;2023-06-10T07:11:17;100759.13;;;25.09;35.62
69239;BME280;56349;51.816;-0.026;2023-06-10T07:13:43;100759.79;;;25.05;35.43
69239;BME280;56349;51.816;-0.026;2023-06-10T07:16:08;100766.08;;;25.03;35.61
69239;BME280;56349;51.816;-0.026;2023-06-10T07:18:34;100766.61;;;25.04;35.82
69239;BME280;56349;51.816;-0.026;2023-06-10T07:21:00;100770.61;;;25.05;35.90
69239;BME280;56349;51.816;-0.026;2023-06-10T07:23:25;100771.11;;;25.27;35.96
69239;BME280;56349;51.816;-0.026;2023-06-10T07:25:52;100773.65;;;25.04;35.97
69239;BME280;56349;51.816;-0.026;2023-06-10T07:28:17;100771.75;;;25.26;35.97
69239;BME280;56349;51.816;-0.026;2023-06-10T07:30:43;100769.78;;;25.28;36.03
69239;BME280;56349;51.816;-0.026;2023-06-10T07:33:09;100778.23;;;25.30;36.07
69239;BME280;56349;51.816;-0.026;2023-06-10T07:35:35;100775.79;;;25.07;36.09
69239;BME280;56349;51.816;-0.026;2023-06-10T07:38:01;100774.65;;;25.07;36.10
69239;BME280;56349;51.816;-0.026;2023-06-10T07:40:26;100775.23;;;25.05;36.15
69239;BME280;56349;51.816;-0.026;2023-06-10T07:42:52;100776.48;;;25.05;36.16
69239;BME280;56349;51.816;-0.026;2023-06-10T07:45:18;100774.34;;;25.05;36.19
69239;BME280;56349;51.816;-0.026;2023-06-10T07:47:44;100775.97;;;25.05;36.17
69239;BME280;56349;51.816;-0.026;2023-06-10T07:50:10;100775.55;;;25.28;36.19
69239;BME280;56349;51.816;-0.026;2023-06-10T07:52:34;100777.17;;;25.05;36.16
69239;BME280;56349;51.816;-0.026;2023-06-10T07:55:00;100777.69;;;25.05;36.19
69239;BME280;56349;51.816;-0.026;2023-06-10T07:57:26;100777.47;;;25.04;36.19
69239;BME280;56349;51.816;-0.026;2023-06-10T07:59:52;100779.60;;;25.29;36.18
69239;BME280;56349;51.816;-0.026;2023-06-10T08:02:18;100777.85;;;25.31;36.17
69239;BME280;56349;51.816;-0.026;2023-06-10T08:04:44;100776.93;;;25.10;36.15
69239;BME280;56349;51.816;-0.026;2023-06-10T08:07:09;100775.56;;;25.54;36.15
69239;BME280;56349;51.816;-0.026;2023-06-10T08:09:35;100775.64;;;25.09;36.15
69239;BME280;56349;51.816;-0.026;2023-06-10T08:12:01;100778.20;;;25.30;36.15
69239;BME280;56349;51.816;-0.026;2023-06-10T08:14:26;100780.33;;;25.08;36.14
69239;BME280;56349;51.816;-0.026;2023-06-10T08:16:52;100781.45;;;25.07;36.13
69239;BME280;56349;51.816;-0.026;2023-06-10T08:19:18;100777.61;;;25.30;36.12
69239;BME280;56349;51.816;-0.026;2023-06-10T08:21:43;100780.18;;;25.31;36.10
69239;BME280;56349;51.816;-0.026;2023-06-10T08:24:09;100783.27;;;25.10;36.05
69239;BME280;56349;51.816;-0.026;2023-06-10T08:26:35;100785.22;;;25.13;36.06
69239;BME280;56349;51.816;-0.026;2023-06-10T08:29:01;100787.73;;;25.35;35.97
69239;BME280;56349;51.816;-0.026;2023-06-10T08:31:27;100787.36;;;25.34;35.91
69239;BME280;56349;51.816;-0.026;2023-06-10T08:33:52;100789.49;;;25.10;35.89
69239;BME280;56349;51.816;-0.026;2023-06-10T08:36:18;100786.99;;;25.31;35.86
69239;BME280;56349;51.816;-0.026;2023-06-10T08:38:44;100785.19;;;25.30;35.87
69239;BME280;56349;51.816;-0.026;2023-06-10T08:41:12;100780.95;;;25.29;35.85
69239;BME280;56349;51.816;-0.026;2023-06-10T08:43:42;100780.52;;;25.07;35.79
69239;BME280;56349;51.816;-0.026;2023-06-10T08:46:03;100781.23;;;25.29;35.79
69239;BME280;56349;51.816;-0.026;2023-06-10T08:48:29;100780.77;;;25.28;35.82
69239;BME280;56349;51.816;-0.026;2023-06-10T08:50:55;100781.59;;;25.52;35.75
69239;BME280;56349;51.816;-0.026;2023-06-10T08:53:18;100783.18;;;25.10;35.80
69239;BME280;56349;51.816;-0.026;2023-06-10T08:55:46;100780.71;;;25.12;35.92
69239;BME280;56349;51.816;-0.026;2023-06-10T08:58:09;100780.73;;;25.37;36.08
69239;BME280;56349;51.816;-0.026;2023-06-10T09:00:34;100776.60;;;25.19;36.00
69239;BME280;56349;51.816;-0.026;2023-06-10T09:03:00;100771.59;;;25.23;36.09
69239;BME280;56349;51.816;-0.026;2023-06-10T09:05:27;100770.56;;;25.27;36.19
69239;BME280;56349;51.816;-0.026;2023-06-10T09:07:52;100776.10;;;25.29;36.21
69239;BME280;56349;51.816;-0.026;2023-06-10T09:10:17;100777.60;;;25.31;36.36
69239;BME280;56349;51.816;-0.026;2023-06-10T09:12:43;100780.56;;;25.33;36.32
69239;BME280;56349;51.816;-0.026;2023-06-10T09:15:09;100778.74;;;25.36;36.36
69239;BME280;56349;51.816;-0.026;2023-06-10T09:17:35;100781.36;;;25.39;36.39
69239;BME280;56349;51.816;-0.026;2023-06-10T09:20:00;100781.47;;;25.41;36.40
69239;BME280;56349;51.816;-0.026;2023-06-10T09:22:24;100781.04;;;25.65;36.72
69239;BME280;56349;51.816;-0.026;2023-06-10T09:24:50;100779.23;;;25.44;36.84
69239;BME280;56349;51.816;-0.026;2023-06-10T09:27:16;100780.45;;;25.46;36.77
69239;BME280;56349;51.816;-0.026;2023-06-10T09:29:47;100780.30;;;25.47;36.75
69239;BME280;56349;51.816;-0.026;2023-06-10T09:32:07;100783.87;;;25.48;36.87
69239;BME280;56349;51.816;-0.026;2023-06-10T09:34:32;100781.48;;;25.50;36.93
69239;BME280;56349;51.816;-0.026;2023-06-10T09:36:58;100781.96;;;25.52;36.94
69239;BME280;56349;51.816;-0.026;2023-06-10T09:39:24;100778.33;;;25.27;36.94
69239;BME280;56349;51.816;-0.026;2023-06-10T09:41:50;100779.90;;;25.53;36.98
69239;BME280;56349;51.816;-0.026;2023-06-10T09:44:17;100778.63;;;25.52;36.96
69239;BME280;56349;51.816;-0.026;2023-06-10T09:46:43;100783.72;;;25.53;36.98
69239;BME280;56349;51.816;-0.026;2023-06-10T09:49:08;100786.84;;;25.55;36.94
69239;BME280;56349;51.816;-0.026;2023-06-10T09:51:34;100791.60;;;25.57;36.93
69239;BME280;56349;51.816;-0.026;2023-06-10T09:54:02;100795.17;;;25.58;36.98
69239;BME280;56349;51.816;-0.026;2023-06-10T09:56:33;100795.29;;;25.57;36.98
69239;BME280;56349;51.816;-0.026;2023-06-10T09:58:53;100796.42;;;25.58;36.95
69239;BME280;56349;51.816;-0.026;2023-06-10T10:01:15;100797.11;;;25.60;36.89
69239;BME280;56349;51.816;-0.026;2023-06-10T10:03:45;100798.81;;;25.60;36.89
69239;BME280;56349;51.816;-0.026;2023-06-10T10:06:08;100796.46;;;25.60;36.87
69239;BME280;56349;51.816;-0.026;2023-06-10T10:08:32;100797.44;;;25.59;36.88
69239;BME280;56349;51.816;-0.026;2023-06-10T10:10:58;100791.99;;;25.58;36.85
69239;BME280;56349;51.816;-0.026;2023-06-10T10:13:24;100800.85;;;25.31;36.84
69239;BME280;56349;51.816;-0.026;2023-06-10T10:15:49;100796.65;;;25.58;36.83
69239;BME280;56349;51.816;-0.026;2023-06-10T10:18:18;100796.13;;;25.61;36.81
69239;BME280;56349;51.816;-0.026;2023-06-10T10:20:46;100793.19;;;25.63;36.74
69239;BME280;56349;51.816;-0.026;2023-06-10T10:23:08;100793.90;;;25.63;36.66
69239;BME280;56349;51.816;-0.026;2023-06-10T10:25:37;100794.40;;;25.64;36.65
69239;BME280;56349;51.816;-0.026;2023-06-10T10:28:08;100792.82;;;25.66;36.56
69239;BME280;56349;51.816;-0.026;2023-06-10T10:30:25;100796.28;;;25.38;36.48
69239;BME280;56349;51.816;-0.026;2023-06-10T10:32:57;100794.34;;;25.38;36.51
69239;BME280;56349;51.816;-0.026;2023-06-10T10:35:18;100792.71;;;25.39;36.51
69239;BME280;56349;51.816;-0.026;2023-06-10T10:37:42;100796.94;;;25.38;36.51
69239;BME280;56349;51.816;-0.026;2023-06-10T10:40:09;100792.93;;;25.64;36.44
69239;BME280;56349;51.816;-0.026;2023-06-10T10:42:34;100794.91;;;25.64;36.41
69239;BME280;56349;51.816;-0.026;2023-06-10T10:45:00;100793.70;;;25.39;36.39
69239;BME280;56349;51.816;-0.026;2023-06-10T10:47:28;100793.94;;;25.66;36.32
69239;BME280;56349;51.816;-0.026;2023-06-10T10:49:52;100794.00;;;25.69;36.30
69239;BME280;56349;51.816;-0.026;2023-06-10T10:52:17;100793.04;;;25.44;36.26
69239;BME280;56349;51.816;-0.026;2023-06-10T10:54:45;100791.11;;;25.75;36.30
69239;BME280;56349;51.816;-0.026;2023-06-10T10:57:13;100788.13;;;25.78;36.19
69239;BME280;56349;51.816;-0.026;2023-06-10T11:01:59;100785.73;;;25.52;36.22
69239;BME280;56349;51.816;-0.026;2023-06-10T11:04:26;100787.19;;;25.79;36.13
69239;BME280;56349;51.816;-0.026;2023-06-10T11:06:54;100783.91;;;25.81;36.15
69239;BME280;56349;51.816;-0.026;2023-06-10T11:11:50;100788.19;;;25.84;36.18
69239;BME280;56349;51.816;-0.026;2023-06-10T11:14:08;100786.46;;;25.86;36.24
69239;BME280;56349;51.816;-0.026;2023-06-10T11:16:39;100787.01;;;25.91;36.23
69239;BME280;56349;51.816;-0.026;2023-06-10T11:18:58;100785.14;;;25.94;36.31
69239;BME280;56349;51.816;-0.026;2023-06-10T11:21:24;100780.03;;;25.97;36.17
69239;BME280;56349;51.816;-0.026;2023-06-10T11:23:50;100779.80;;;26.01;36.15
69239;BME280;56349;51.816;-0.026;2023-06-10T11:26:17;100773.45;;;25.77;36.16
69239;BME280;56349;51.816;-0.026;2023-06-10T11:28:41;100774.95;;;25.79;36.02
69239;BME280;56349;51.816;-0.026;2023-06-10T11:31:08;100770.39;;;25.82;36.02
69239;BME280;56349;51.816;-0.026;2023-06-10T11:33:33;100770.44;;;25.85;36.02
69239;BME280;56349;51.816;-0.026;2023-06-10T11:35:59;100763.90;;;25.89;35.86
69239;BME280;56349;51.816;-0.026;2023-06-10T11:38:25;100763.82;;;26.19;35.72
69239;BME280;56349;51.816;-0.026;2023-06-10T11:40:51;100763.15;;;26.22;35.59
69239;BME280;56349;51.816;-0.026;2023-06-10T11:43:17;100765.05;;;26.24;35.55
69239;BME280;56349;51.816;-0.026;2023-06-10T11:45:42;100762.20;;;25.98;35.47
69239;BME280;56349;51.816;-0.026;2023-06-10T11:48:09;100763.18;;;25.99;35.39
69239;BME280;56349;51.816;-0.026;2023-06-10T11:50:34;100759.17;;;26.01;35.33
69239;BME280;56349;51.816;-0.026;2023-06-10T11:53:00;100759.21;;;26.03;35.31
69239;BME280;56349;51.816;-0.026;2023-06-10T11:55:25;100759.91;;;26.33;35.25
69239;BME280;56349;51.816;-0.026;2023-06-10T11:57:50;100761.75;;;26.36;35.25
69239;BME280;56349;51.816;-0.026;2023-06-10T12:00:17;100759.50;;;26.12;35.23
69239;BME280;56349;51.816;-0.026;2023-06-10T12:02:42;100760.75;;;26.15;35.17
69239;BME280;56349;51.816;-0.026;2023-06-10T12:05:12;100757.05;;;26.19;35.08
69239;BME280;56349;51.816;-0.026;2023-06-10T12:07:33;100758.29;;;25.99;35.08
69239;BME280;56349;51.816;-0.026;2023-06-10T12:09:59;100755.91;;;26.25;34.96
69239;BME280;56349;51.816;-0.026;2023-06-10T12:12:24;100757.72;;;26.27;34.94
69239;BME280;56349;51.816;-0.026;2023-06-10T12:14:51;100759.76;;;26.31;34.87
69239;BME280;56349;51.816;-0.026;2023-06-10T12:17:15;100754.49;;;26.64;34.74
69239;BME280;56349;51.816;-0.026;2023-06-10T12:19:41;100753.94;;;26.21;34.67
69239;BME280;56349;51.816;-0.026;2023-06-10T12:22:07;100748.82;;;26.47;34.61
69239;BME280;56349;51.816;-0.026;2023-06-10T12:24:33;100751.43;;;26.26;34.60
69239;BME280;56349;51.816;-0.026;2023-06-10T12:26:59;100751.63;;;26.77;34.63
69239;BME280;56349;51.816;-0.026;2023-06-10T12:29:25;100748.50;;;26.31;34.64
69239;BME280;56349;51.816;-0.026;2023-06-10T12:31:55;100750.82;;;26.56;34.65
69239;BME280;56349;51.816;-0.026;2023-06-10T12:34:16;100750.50;;;26.57;34.68
69239;BME280;56349;51.816;-0.026;2023-06-10T12:36:48;100745.86;;;26.59;34.72